Diamond Center, Iowa
Current Conditions -  °F | °C
As of 9:15 PM on Saturday 20 Dec 2014 (Local Time) from KCKP Reporting Station
Haze Haze  
Wind Chill: -4°   Ceiling: 600
Heat Index:   Visibility: 5mi
Dew Point:   Wind: 9mph
Humidity: 100%   Direction: 170°S
Pressure: 30.03"   Gusts: NA
Location:  42.6502°N, 95.4454°W
Report Text: KCKP 210315Z AUTO 17008KT 5SM BR OVC006 00/00 A3003 RMK AO2 T00000000
Loading
Personal Weather Stations






























Interactive Weather Map New forecast layout! Learn more

10-Day Weather Forecast

Advertisements
Track Severe Weather on mobile